Time;durP1;ratioP1;P1;durP2;ratioP2;P2;SDS_P1;SDS_P2;PMS_P1;PMS_P2;Temp;Humidity;BMP_temperature;BMP_pressure;BME280_temperature;BME280_humidity;BME280_pressure;Samples;Min_cycle;Max_cycle;Signal;HPM_P1;HPM_P2
2022/12/21 00:01:48;;;;;;;;;;;;;;;7.72;100.00;101046.50;5088387;28;19912;-75
2022/12/21 00:04:13;;;;;;;;;;;;;;;7.69;100.00;101059.06;5094155;28;19951;-76
2022/12/21 00:06:38;;;;;;;;;;;;;;;7.69;100.00;101065.16;5086738;28;19998;-76
2022/12/21 00:09:05;;;;;;;;;;;;;;;7.75;100.00;101069.06;5087090;28;19947;-74
2022/12/21 00:11:31;;;;;;;;;;;;;;;7.72;100.00;101074.56;5088583;28;19955;-76
2022/12/21 00:13:57;;;;;;;;;;;;;;;7.67;100.00;101072.31;5088514;28;19915;-76
2022/12/21 00:16:24;;;;;;;;;;;;;;;7.68;100.00;101078.41;5088077;28;19916;-76
2022/12/21 00:18:50;;;;;;;;;;;;;;;7.66;100.00;101075.06;5087712;28;20160;-76
2022/12/21 00:21:17;;;;;;;;;;;;;;;7.59;100.00;101078.19;5089363;28;20126;-76
2022/12/21 00:23:43;;;;;;;;;;;;;;;7.42;100.00;101068.22;5086271;28;19912;-76
2022/12/21 00:26:08;;;;;;;;;;;;;;;7.25;100.00;101072.22;5093596;28;19942;-73
2022/12/21 00:28:34;;;;;;;;;;;;;;;7.27;100.00;101080.78;5087035;28;19940;-76
2022/12/21 00:31:03;;;;;;;;;;;;;;;7.11;100.00;101085.59;5088340;28;19920;-75
2022/12/21 00:33:29;;;;;;;;;;;;;;;7.07;100.00;101099.91;5088536;28;20060;-75
2022/12/21 00:35:54;;;;;;;;;;;;;;;7.03;100.00;101101.94;5086734;28;20477;-74
2022/12/21 00:38:19;;;;;;;;;;;;;;;6.88;100.00;101117.13;5070362;28;19992;-74
2022/12/21 00:40:45;;;;;;;;;;;;;;;6.91;100.00;101116.03;5087095;28;19916;-75
2022/12/21 00:43:10;;;;;;;;;;;;;;;6.91;100.00;101106.38;5086170;28;20007;-76
2022/12/21 00:45:36;;;;;;;;;;;;;;;6.97;100.00;101115.56;5090603;28;19923;-76
2022/12/21 00:48:01;;;;;;;;;;;;;;;6.83;100.00;101108.75;5090141;28;20425;-76
2022/12/21 00:50:27;;;;;;;;;;;;;;;6.79;100.00;101107.31;5091486;28;19930;-75
2022/12/21 00:52:52;;;;;;;;;;;;;;;6.81;100.00;101105.41;5092141;28;20264;-75
2022/12/21 00:55:17;;;;;;;;;;;;;;;6.81;100.00;101094.91;5091137;28;20023;-75
2022/12/21 00:57:43;;;;;;;;;;;;;;;6.80;100.00;101103.75;5090651;28;19924;-75
2022/12/21 01:00:09;;;;;;;;;;;;;;;6.72;100.00;101104.34;5090910;28;19923;-74
2022/12/21 01:02:35;;;;;;;;;;;;;;;6.55;100.00;101105.66;5091464;28;20340;-75
2022/12/21 01:05:01;;;;;;;;;;;;;;;6.51;100.00;101103.34;5089594;28;20114;-76
2022/12/21 01:07:26;;;;;;;;;;;;;;;6.41;100.00;101099.78;5092135;28;20386;-75
2022/12/21 01:09:52;;;;;;;;;;;;;;;6.36;100.00;101100.97;5090813;28;19911;-74
2022/12/21 01:12:17;;;;;;;;;;;;;;;6.39;100.00;101100.72;5091276;28;20357;-75
2022/12/21 01:14:42;;;;;;;;;;;;;;;6.35;100.00;101098.47;5091151;28;20755;-75
2022/12/21 01:17:07;;;;;;;;;;;;;;;6.35;100.00;101103.69;5089548;28;20302;-74
2022/12/21 01:19:33;;;;;;;;;;;;;;;6.39;100.00;101099.91;5092387;28;19923;-76
2022/12/21 01:21:58;;;;;;;;;;;;;;;6.34;100.00;101102.03;5090858;28;19919;-75
2022/12/21 01:24:23;;;;;;;;;;;;;;;6.27;100.00;101113.91;5091076;28;20650;-75
2022/12/21 01:26:48;;;;;;;;;;;;;;;6.23;100.00;101118.56;5090737;28;20307;-75
2022/12/21 01:29:14;;;;;;;;;;;;;;;6.26;100.00;101120.13;5072013;28;20368;-75
2022/12/21 01:31:39;;;;;;;;;;;;;;;6.25;100.00;101119.28;5089991;28;19924;-75
2022/12/21 01:34:04;;;;;;;;;;;;;;;6.23;100.00;101121.19;5090489;28;19955;-76
2022/12/21 01:36:30;;;;;;;;;;;;;;;6.24;100.00;101128.09;5090049;28;20324;-76
2022/12/21 01:38:55;;;;;;;;;;;;;;;6.30;100.00;101132.88;5090052;28;20326;-76
2022/12/21 01:41:22;;;;;;;;;;;;;;;6.34;100.00;101138.75;5089816;28;20334;-75
2022/12/21 01:43:47;;;;;;;;;;;;;;;6.33;100.00;101137.06;5091226;28;19923;-76
2022/12/21 01:46:18;;;;;;;;;;;;;;;6.30;100.00;101137.31;5091154;28;20298;-74
2022/12/21 01:48:48;;;;;;;;;;;;;;;6.26;100.00;101131.44;5089964;28;20309;-75
2022/12/21 01:51:14;;;;;;;;;;;;;;;6.24;100.00;101133.34;5090304;28;19926;-75
2022/12/21 01:53:43;;;;;;;;;;;;;;;6.24;100.00;101140.38;5090414;28;19916;-74
2022/12/21 01:56:10;;;;;;;;;;;;;;;6.17;100.00;101153.94;5091008;28;20394;-76
2022/12/21 01:58:36;;;;;;;;;;;;;;;6.17;100.00;101146.06;5090216;28;20044;-76
2022/12/21 02:01:02;;;;;;;;;;;;;;;6.20;100.00;101152.03;5090027;28;19932;-75
2022/12/21 02:03:33;;;;;;;;;;;;;;;6.21;100.00;101164.19;5090114;28;19939;-76
2022/12/21 02:06:05;;;;;;;;;;;;;;;6.37;100.00;101169.97;5089192;28;20441;-75
2022/12/21 02:08:30;;;;;;;;;;;;;;;6.41;100.00;101176.66;5096853;28;19928;-75
2022/12/21 02:10:56;;;;;;;;;;;;;;;6.40;100.00;101180.19;5089836;28;19919;-76
2022/12/21 02:13:21;;;;;;;;;;;;;;;6.30;100.00;101184.47;5089809;28;19922;-76
2022/12/21 02:15:53;;;;;;;;;;;;;;;6.27;100.00;101176.81;5089517;28;19919;-75
2022/12/21 02:18:21;;;;;;;;;;;;;;;6.32;100.00;101182.59;5089835;28;19920;-76
2022/12/21 02:20:52;;;;;;;;;;;;;;;6.27;100.00;101176.81;5090604;28;20176;-75
2022/12/21 02:23:38;;;;;;;;;;;;;;;6.18;100.00;101180.97;5090171;28;19912;-75
2022/12/21 02:26:22;;;;;;;;;;;;;;;6.26;100.00;101189.09;5086601;28;20018;-76
2022/12/21 02:29:06;;;;;;;;;;;;;;;6.04;100.00;101187.22;5088891;28;19923;-75
2022/12/21 02:31:43;;;;;;;;;;;;;;;6.13;100.00;101198.81;5089574;28;19917;-75
2022/12/21 02:34:21;;;;;;;;;;;;;;;6.09;100.00;101200.00;5090785;28;20432;-75
2022/12/21 02:36:49;;;;;;;;;;;;;;;6.25;100.00;101213.66;5089645;28;19911;-74
2022/12/21 02:39:23;;;;;;;;;;;;;;;6.17;100.00;101216.81;5090128;28;19912;-75
2022/12/21 02:41:57;;;;;;;;;;;;;;;6.01;100.00;101218.91;5089995;28;19915;-75
2022/12/21 02:44:24;;;;;;;;;;;;;;;6.09;100.00;101220.97;5089568;28;19922;-76
2022/12/21 02:47:08;;;;;;;;;;;;;;;6.08;100.00;101222.75;5087560;28;19919;-75
2022/12/21 02:49:47;;;;;;;;;;;;;;;6.06;100.00;101222.03;5086795;28;20404;-75
2022/12/21 02:52:12;;;;;;;;;;;;;;;6.15;100.00;101221.34;5089348;28;19939;-76
2022/12/21 02:54:38;;;;;;;;;;;;;;;6.07;100.00;101226.31;5095894;28;19987;-75
2022/12/21 02:57:04;;;;;;;;;;;;;;;6.01;100.00;101218.91;5087355;28;19924;-74
2022/12/21 02:59:32;;;;;;;;;;;;;;;6.01;100.00;101213.66;5089234;28;20459;-76
2022/12/21 03:02:15;;;;;;;;;;;;;;;6.02;100.00;101219.75;5088042;28;20324;-74
2022/12/21 03:04:41;;;;;;;;;;;;;;;6.02;100.00;101217.94;5088503;28;20023;-76
2022/12/21 03:07:22;;;;;;;;;;;;;;;6.00;100.00;101219.84;5088438;28;20014;-75
2022/12/21 03:09:50;;;;;;;;;;;;;;;5.95;100.00;101228.03;5089529;28;20299;-75
2022/12/21 03:12:15;;;;;;;;;;;;;;;5.95;100.00;101217.56;5089168;28;20123;-74
2022/12/21 03:14:53;;;;;;;;;;;;;;;6.04;100.00;101218.69;5089225;28;20437;-74
2022/12/21 03:17:36;;;;;;;;;;;;;;;6.02;100.00;101219.75;5088595;28;19915;-76
2022/12/21 03:20:34;;;;;;;;;;;;;;;5.98;100.00;101217.31;5087672;28;19915;-76
2022/12/21 03:23:13;;;;;;;;;;;;;;;5.97;100.00;101213.03;5017641;28;19923;-76
2022/12/21 03:25:43;;;;;;;;;;;;;;;5.97;100.00;101212.22;5034587;28;19917;-75
2022/12/21 03:28:11;;;;;;;;;;;;;;;5.92;100.00;101212.53;5016570;28;19953;-76
2022/12/21 03:30:42;;;;;;;;;;;;;;;5.88;100.00;101204.97;5035351;28;19912;-75
2022/12/21 03:33:09;;;;;;;;;;;;;;;5.88;100.00;101202.34;5033384;28;19916;-74
2022/12/21 03:35:39;;;;;;;;;;;;;;;5.88;100.00;101212.81;5034805;28;20015;-75
2022/12/21 03:38:07;;;;;;;;;;;;;;;5.75;100.00;101205.88;5035229;28;19913;-75
2022/12/21 03:40:34;;;;;;;;;;;;;;;5.65;100.00;101199.59;5034845;28;19912;-74
2022/12/21 03:43:05;;;;;;;;;;;;;;;5.67;100.00;101202.94;5034773;28;20400;-74
2022/12/21 03:45:34;;;;;;;;;;;;;;;5.71;100.00;101214.88;5033783;28;19924;-74
2022/12/21 03:48:04;;;;;;;;;;;;;;;5.66;100.00;101217.00;5035495;28;20361;-75
2022/12/21 03:50:32;;;;;;;;;;;;;;;5.65;100.00;101204.00;5016936;28;20390;-77
2022/12/21 03:53:04;;;;;;;;;;;;;;;5.63;100.00;101203.28;5019216;28;19916;-75
2022/12/21 03:55:33;;;;;;;;;;;;;;;5.62;100.00;101201.59;5033729;28;19927;-75
2022/12/21 03:57:59;;;;;;;;;;;;;;;5.55;100.00;101198.56;5046105;28;20112;-76
2022/12/21 04:00:26;;;;;;;;;;;;;;;5.52;100.00;101204.88;5092764;28;19919;-76
2022/12/21 04:02:54;;;;;;;;;;;;;;;5.45;100.00;101208.03;5088943;28;20245;-76
2022/12/21 04:05:38;;;;;;;;;;;;;;;5.35;100.00;101208.66;5087271;28;20246;-75
2022/12/21 04:08:03;;;;;;;;;;;;;;;5.36;100.00;101206.91;5088897;28;20285;-75
2022/12/21 04:10:29;;;;;;;;;;;;;;;5.33;100.00;101210.59;5087707;28;20234;-75
2022/12/21 04:12:54;;;;;;;;;;;;;;;5.39;100.00;101205.84;5088667;28;20030;-74
2022/12/21 04:15:21;;;;;;;;;;;;;;;5.41;100.00;101199.56;5087517;28;19926;-76
2022/12/21 04:17:48;;;;;;;;;;;;;;;5.48;100.00;101202.59;5087764;28;19915;-74
2022/12/21 04:20:15;;;;;;;;;;;;;;;5.54;100.00;101216.06;5092815;28;19927;-75
2022/12/21 04:28:19;;;;;;;;;;;;;;;5.62;100.00;101215.53;5092904;28;20340;-75
2022/12/21 04:30:44;;;;;;;;;;;;;;;5.57;100.00;101215.00;5091659;28;20010;-75
2022/12/21 04:33:12;;;;;;;;;;;;;;;5.64;100.00;101224.13;5090323;28;19918;-75
2022/12/21 04:37:30;;;;;;;;;;;;;;;5.55;100.00;101223.00;5092234;28;20332;-75
2022/12/21 04:38:24;;;;;;;;;;;;;;;5.57;100.00;101221.13;5091712;28;20410;-75
2022/12/21 04:40:53;;;;;;;;;;;;;;;5.65;100.00;101220.56;5091251;28;20008;-75
2022/12/21 04:43:18;;;;;;;;;;;;;;;5.69;100.00;101222.00;5098405;28;19923;-75
2022/12/21 04:45:43;;;;;;;;;;;;;;;5.73;100.00;101218.22;5090771;28;19985;-75
2022/12/21 04:48:09;;;;;;;;;;;;;;;5.67;100.00;101210.81;5092068;28;19915;-76
2022/12/21 04:50:37;;;;;;;;;;;;;;;5.66;100.00;101213.53;5089437;28;20027;-75
2022/12/21 04:53:02;;;;;;;;;;;;;;;5.66;100.00;101216.16;5090623;28;19999;-74
2022/12/21 04:55:27;;;;;;;;;;;;;;;5.56;100.00;101216.81;5091918;28;19930;-75
2022/12/21 04:57:52;;;;;;;;;;;;;;;5.47;100.00;101211.41;5091539;28;20299;-75
2022/12/21 05:00:18;;;;;;;;;;;;;;;5.48;100.00;101202.59;5091300;28;20614;-75
2022/12/21 05:02:43;;;;;;;;;;;;;;;5.39;100.00;101196.22;5090364;28;19927;-74
2022/12/21 05:05:08;;;;;;;;;;;;;;;5.34;100.00;101190.47;5089441;28;20298;-76
2022/12/21 05:07:33;;;;;;;;;;;;;;;5.31;100.00;101196.78;5088943;28;19924;-74
2022/12/21 05:09:59;;;;;;;;;;;;;;;5.31;100.00;101195.91;5087745;28;20233;-75
2022/12/21 05:12:24;;;;;;;;;;;;;;;5.27;100.00;101195.31;5087444;28;19927;-74
2022/12/21 05:14:49;;;;;;;;;;;;;;;5.25;100.00;101196.34;5089373;28;19920;-76
2022/12/21 05:17:15;;;;;;;;;;;;;;;5.25;100.00;101198.97;5072265;28;19920;-75
2022/12/21 05:19:40;;;;;;;;;;;;;;;5.23;100.00;101208.72;5089199;28;20459;-75
2022/12/21 05:22:05;;;;;;;;;;;;;;;5.25;100.00;101191.13;5088620;28;19923;-75
2022/12/21 05:24:30;;;;;;;;;;;;;;;5.32;100.00;101197.59;5093121;28;19921;-75
2022/12/21 05:26:55;;;;;;;;;;;;;;;5.34;100.00;101190.47;5087932;28;20010;-75
2022/12/21 05:29:21;;;;;;;;;;;;;;;5.33;100.00;101188.78;5089402;28;19967;-75
2022/12/21 05:31:46;;;;;;;;;;;;;;;5.31;100.00;101186.28;5085739;28;20357;-75
2022/12/21 05:34:11;;;;;;;;;;;;;;;5.30;100.00;101195.06;5087788;28;20003;-73
2022/12/21 05:36:36;;;;;;;;;;;;;;;5.39;100.00;101193.59;5087419;28;19943;-74
2022/12/21 05:39:02;;;;;;;;;;;;;;;5.31;100.00;101194.16;5088908;28;19959;-75
2022/12/21 05:41:27;;;;;;;;;;;;;;;5.22;100.00;101200.00;5086785;28;19967;-76
2022/12/21 05:43:52;;;;;;;;;;;;;;;5.26;100.00;101193.63;5088983;28;19950;-75
2022/12/21 05:46:18;;;;;;;;;;;;;;;5.18;100.00;101193.31;5089763;28;20480;-75
2022/12/21 05:48:43;;;;;;;;;;;;;;;5.18;100.00;101190.69;5088568;28;19916;-75
2022/12/21 05:51:09;;;;;;;;;;;;;;;5.27;100.00;101190.06;5086893;28;20314;-75
2022/12/21 05:53:35;;;;;;;;;;;;;;;5.31;100.00;101193.28;5088909;28;20021;-74
2022/12/21 05:56:00;;;;;;;;;;;;;;;5.29;100.00;101193.41;5070396;28;19955;-75
2022/12/21 05:58:25;;;;;;;;;;;;;;;5.39;100.00;101198.00;5089082;28;19916;-75
2022/12/21 06:00:52;;;;;;;;;;;;;;;5.43;100.00;101202.09;5085367;28;20183;-75
2022/12/21 06:03:17;;;;;;;;;;;;;;;5.42;100.00;101208.25;5087674;28;20066;-76
2022/12/21 06:05:43;;;;;;;;;;;;;;;5.39;100.00;101208.47;5089145;28;20221;-74
2022/12/21 06:08:09;;;;;;;;;;;;;;;5.40;100.00;101204.91;5089075;28;20044;-75
2022/12/21 06:10:35;;;;;;;;;;;;;;;5.40;100.00;101204.91;5087182;28;20333;-74
2022/12/21 06:13:01;;;;;;;;;;;;;;;5.36;100.00;101209.53;5088691;28;20314;-75
2022/12/21 06:15:26;;;;;;;;;;;;;;;5.42;100.00;101218.72;5085595;28;19974;-75
2022/12/21 06:17:51;;;;;;;;;;;;;;;5.43;100.00;101215.16;5088209;28;20481;-75
2022/12/21 06:20:17;;;;;;;;;;;;;;;5.41;100.00;101209.19;5085156;28;20408;-75
2022/12/21 06:22:42;;;;;;;;;;;;;;;5.38;100.00;101205.03;5086744;28;19911;-75
2022/12/21 06:25:07;;;;;;;;;;;;;;;5.43;100.00;101209.94;5085310;28;19920;-75
2022/12/21 06:27:33;;;;;;;;;;;;;;;5.41;100.00;101207.41;5087400;28;19920;-74
2022/12/21 06:29:58;;;;;;;;;;;;;;;5.43;100.00;101212.56;5085802;28;19923;-75
2022/12/21 06:32:24;;;;;;;;;;;;;;;5.36;100.00;101205.13;5087347;28;20246;-75
2022/12/21 06:34:49;;;;;;;;;;;;;;;5.41;100.00;101209.19;5084721;28;19942;-76
2022/12/21 06:37:14;;;;;;;;;;;;;;;5.44;100.00;101209.81;5083111;28;20014;-75
2022/12/21 06:39:39;;;;;;;;;;;;;;;5.41;100.00;101224.91;5084417;28;19950;-76
2022/12/21 06:42:05;;;;;;;;;;;;;;;5.42;100.00;101235.28;5085906;28;20519;-77
2022/12/21 06:44:30;;;;;;;;;;;;;;;5.46;100.00;101233.25;5087304;28;20440;-75
2022/12/21 06:46:55;;;;;;;;;;;;;;;5.53;100.00;101234.50;5083458;28;19930;-75
2022/12/21 06:49:20;;;;;;;;;;;;;;;5.52;100.00;101230.22;5082679;28;20707;-76
2022/12/21 06:51:46;;;;;;;;;;;;;;;5.52;100.00;101235.47;5085579;28;20210;-75
2022/12/21 06:54:11;;;;;;;;;;;;;;;5.47;100.00;101222.69;5083526;28;19916;-75
2022/12/21 06:56:37;;;;;;;;;;;;;;;5.45;100.00;101223.75;5082013;28;19920;-75
2022/12/21 06:59:02;;;;;;;;;;;;;;;5.40;100.00;101210.13;5083321;28;19912;-75
2022/12/21 07:01:32;;;;;;;;;;;;;;;5.41;100.00;101212.66;5084577;28;19912;-75
2022/12/21 07:03:57;;;;;;;;;;;;;;;5.34;100.00;101211.41;5086712;28;20382;-74
2022/12/21 07:06:24;;;;;;;;;;;;;;;5.35;100.00;101224.38;5087855;28;20003;-75
2022/12/21 07:08:50;;;;;;;;;;;;;;;5.35;100.00;101229.59;5087657;28;19970;-75
2022/12/21 07:11:17;;;;;;;;;;;;;;;5.36;100.00;101220.81;5087268;28;20006;-75
2022/12/21 07:13:43;;;;;;;;;;;;;;;5.46;100.00;101215.78;5085948;28;20041;-76
2022/12/21 07:16:09;;;;;;;;;;;;;;;5.51;100.00;101218.09;5085650;28;20231;-76
2022/12/21 07:18:35;;;;;;;;;;;;;;;5.53;100.00;101213.56;5086685;28;19999;-76
2022/12/21 07:21:05;;;;;;;;;;;;;;;5.53;100.00;101230.13;5086148;28;20010;-75
2022/12/21 07:23:31;;;;;;;;;;;;;;;5.63;100.00;101237.31;5087194;28;20143;-74
2022/12/21 07:25:56;;;;;;;;;;;;;;;5.58;100.00;101240.28;5087179;28;20836;-75
2022/12/21 07:28:22;;;;;;;;;;;;;;;5.67;100.00;101255.31;5087546;28;19988;-75
2022/12/21 07:30:48;;;;;;;;;;;;;;;5.66;100.00;101253.66;5090082;28;19916;-75
2022/12/21 07:33:16;;;;;;;;;;;;;;;5.68;100.00;101256.16;5085617;28;19920;-76
2022/12/21 07:35:42;;;;;;;;;;;;;;;5.67;100.00;101265.81;5086391;28;19954;-76
2022/12/21 07:38:07;;;;;;;;;;;;;;;5.67;100.00;101260.56;5089328;28;20010;-74
2022/12/21 07:40:32;;;;;;;;;;;;;;;5.70;100.00;101262.13;5088208;28;20380;-74
2022/12/21 07:42:58;;;;;;;;;;;;;;;5.63;100.00;101258.28;5088011;28;19962;-75
2022/12/21 07:45:23;;;;;;;;;;;;;;;5.61;100.00;101255.75;5087606;28;19924;-74
2022/12/21 07:47:48;;;;;;;;;;;;;;;5.56;100.00;101248.22;5086427;28;20380;-75
2022/12/21 07:50:14;;;;;;;;;;;;;;;5.59;100.00;101246.34;5087980;28;19958;-74
2022/12/21 07:52:39;;;;;;;;;;;;;;;5.63;100.00;101246.00;5086549;28;19927;-75
2022/12/21 07:55:05;;;;;;;;;;;;;;;5.66;100.00;101242.34;5086532;28;19919;-76
2022/12/21 07:57:30;;;;;;;;;;;;;;;5.72;100.00;101242.72;5086589;28;20442;-75
2022/12/21 07:59:55;;;;;;;;;;;;;;;5.64;100.00;101229.38;5086654;28;19915;-75
2022/12/21 08:02:21;;;;;;;;;;;;;;;5.66;100.00;101230.09;5085488;28;19920;-75
2022/12/21 08:04:46;;;;;;;;;;;;;;;5.66;100.00;101232.72;5086128;28;20383;-75
2022/12/21 08:07:12;;;;;;;;;;;;;;;5.65;100.00;101233.66;5086906;28;19923;-76
2022/12/21 08:09:37;;;;;;;;;;;;;;;5.62;100.00;101233.00;5085685;28;19919;-75
2022/12/21 08:12:02;;;;;;;;;;;;;;;5.68;100.00;101236.06;5085674;28;19977;-75
2022/12/21 08:14:28;;;;;;;;;;;;;;;5.74;100.00;101237.41;5085533;28;19915;-75
2022/12/21 08:16:54;;;;;;;;;;;;;;;5.83;100.00;101238.53;5085776;28;19946;-75
2022/12/21 08:19:19;;;;;;;;;;;;;;;5.85;100.00;101252.34;5067802;28;19920;-75
2022/12/21 08:21:44;;;;;;;;;;;;;;;5.77;100.00;101245.88;5085437;28;20291;-75
2022/12/21 08:24:10;;;;;;;;;;;;;;;5.72;100.00;101247.13;5085745;28;20917;-75
2022/12/21 08:26:36;;;;;;;;;;;;;;;5.75;100.00;101245.16;5086898;28;19920;-75
2022/12/21 08:29:01;;;;;;;;;;;;;;;5.86;100.00;101254.03;5086387;28;20463;-75
2022/12/21 08:31:26;;;;;;;;;;;;;;;5.86;100.00;101248.81;5085221;28;19916;-75
2022/12/21 08:33:51;;;;;;;;;;;;;;;5.91;100.00;101251.91;5084053;28;19916;-75
2022/12/21 08:36:19;;;;;;;;;;;;;;;5.92;100.00;101243.09;5086652;28;20107;-75
2022/12/21 08:38:44;;;;;;;;;;;;;;;5.86;100.00;101246.19;5092803;28;20566;-75
2022/12/21 08:41:10;;;;;;;;;;;;;;;5.86;100.00;101248.81;5086568;28;19916;-75
2022/12/21 08:43:36;;;;;;;;;;;;;;;5.84;100.00;101262.00;5085713;28;20389;-75
2022/12/21 08:46:03;;;;;;;;;;;;;;;5.87;100.00;101274.88;5085465;28;19967;-75
2022/12/21 08:48:28;;;;;;;;;;;;;;;5.92;100.00;101274.53;5085604;28;20339;-75
2022/12/21 08:50:53;;;;;;;;;;;;;;;5.89;100.00;101254.63;5086308;28;20005;-73
2022/12/21 08:53:19;;;;;;;;;;;;;;;5.98;100.00;101263.66;5086424;28;19938;-75
2022/12/21 08:55:44;;;;;;;;;;;;;;;6.03;100.00;101258.94;5100980;28;19911;-75
2022/12/21 08:58:09;;;;;;;;;;;;;;;5.99;100.00;101260.09;5085734;28;19939;-75
2022/12/21 09:00:35;;;;;;;;;;;;;;;5.98;100.00;101259.25;5085823;28;19998;-74
2022/12/21 09:03:00;;;;;;;;;;;;;;;6.12;100.00;101271.38;5086178;28;20392;-75
2022/12/21 09:05:25;;;;;;;;;;;;;;;6.17;100.00;101269.25;5087275;28;20861;-74
2022/12/21 09:07:51;;;;;;;;;;;;;;;6.29;100.00;101266.69;5088128;28;19962;-75
2022/12/21 09:10:16;;;;;;;;;;;;;;;6.23;100.00;101264.50;5088422;28;19915;-75
2022/12/21 09:12:41;;;;;;;;;;;;;;;6.31;100.00;101273.47;5089108;28;19916;-75
2022/12/21 09:15:07;;;;;;;;;;;;;;;6.26;100.00;101267.75;5089241;28;19919;-75
2022/12/21 09:17:32;;;;;;;;;;;;;;;6.29;100.00;101272.78;5089359;28;19911;-75
2022/12/21 09:19:57;;;;;;;;;;;;;;;6.22;100.00;101260.22;5089732;28;20147;-75
2022/12/21 09:22:23;;;;;;;;;;;;;;;6.29;100.00;101270.16;5089681;28;19939;-75
2022/12/21 09:24:48;;;;;;;;;;;;;;;6.30;100.00;101278.84;5087154;28;19916;-75
2022/12/21 09:27:14;;;;;;;;;;;;;;;6.31;100.00;101265.59;5088756;28;19911;-75
2022/12/21 09:29:39;;;;;;;;;;;;;;;6.40;100.00;101264.09;5089209;28;20410;-75
2022/12/21 09:32:04;;;;;;;;;;;;;;;6.38;100.00;101276.50;5088435;28;20424;-75
2022/12/21 09:34:30;;;;;;;;;;;;;;;6.43;100.00;101263.91;5086780;28;19922;-75
2022/12/21 09:36:55;;;;;;;;;;;;;;;6.56;100.00;101269.91;5071983;28;20279;-75
2022/12/21 09:39:21;;;;;;;;;;;;;;;6.50;100.00;101264.28;5089522;28;19924;-75
2022/12/21 09:42:06;;;;;;;;;;;;;;;6.56;100.00;101264.66;5087573;28;19916;-75
2022/12/21 09:44:37;;;;;;;;;;;;;;;6.59;100.00;101264.41;5087252;28;20390;-75
2022/12/21 09:47:04;;;;;;;;;;;;;;;6.61;100.00;101251.19;5088761;28;19946;-75
2022/12/21 09:49:50;;;;;;;;;;;;;;;6.74;100.00;101259.81;5104258;27;19919;-75
2022/12/21 09:52:21;;;;;;;;;;;;;;;6.62;100.00;101257.28;5085845;28;19973;-76
2022/12/21 09:54:53;;;;;;;;;;;;;;;6.47;100.00;101249.59;5088840;28;20703;-75
2022/12/21 09:57:19;;;;;;;;;;;;;;;6.62;100.00;101247.63;5088755;28;20479;-75
2022/12/21 09:59:44;;;;;;;;;;;;;;;6.67;100.00;101242.88;5088684;28;20363;-74
2022/12/21 10:02:28;;;;;;;;;;;;;;;6.71;100.00;101246.13;5088999;28;19916;-75
2022/12/21 10:05:08;;;;;;;;;;;;;;;6.57;100.00;101245.34;5087893;28;19911;-75
2022/12/21 10:07:52;;;;;;;;;;;;;;;6.61;100.00;101229.38;5089126;28;19920;-75
2022/12/21 10:10:20;;;;;;;;;;;;;;;6.71;100.00;101225.13;5089182;28;19912;-75
2022/12/21 10:13:00;;;;;;;;;;;;;;;6.72;100.00;101205.81;5087999;28;19912;-74
2022/12/21 10:15:44;;;;;;;;;;;;;;;6.68;100.00;101204.34;5088177;28;19912;-74
2022/12/21 10:18:09;;;;;;;;;;;;;;;6.69;100.00;101200.81;5088446;28;19916;-75
2022/12/21 10:20:44;;;;;;;;;;;;;;;6.89;100.00;101202.72;5087745;28;20382;-75
2022/12/21 10:23:28;;;;;;;;;;;;;;;6.87;100.00;101188.06;5095077;28;20004;-75
2022/12/21 10:25:58;;;;;;;;;;;;;;;6.88;100.00;101164.34;5088131;28;19915;-75
2022/12/21 10:28:35;;;;;;;;;;;;;;;6.88;100.00;101163.47;5089285;28;20219;-75
2022/12/21 10:31:05;;;;;;;;;;;;;;;7.14;100.00;101172.81;5094895;28;20153;-74
2022/12/21 10:33:30;;;;;;;;;;;;;;;7.08;100.00;101164.59;5087429;28;20371;-74
2022/12/21 10:35:58;;;;;;;;;;;;;;;7.19;100.00;101160.16;5088460;28;19989;-75
2022/12/21 10:38:27;;;;;;;;;;;;;;;7.20;100.00;101148.69;5087951;28;19980;-75
2022/12/21 10:40:53;;;;;;;;;;;;;;;7.30;100.00;101145.38;5094829;28;19934;-75
2022/12/21 10:43:20;;;;;;;;;;;;;;;7.31;100.00;101134.72;5087368;28;19912;-76
2022/12/21 10:45:45;;;;;;;;;;;;;;;7.37;100.00;101126.34;5087460;28;20566;-75
2022/12/21 10:48:11;;;;;;;;;;;;;;;7.52;100.00;101115.59;5087686;28;20154;-75
2022/12/21 10:50:42;;;;;;;;;;;;;;;7.42;100.00;101099.72;5087134;28;19912;-74
2022/12/21 10:53:18;;;;;;;;;;;;;;;7.57;100.00;101084.53;5088114;28;19915;-75
2022/12/21 10:55:44;;;;;;;;;;;;;;;7.59;100.00;101069.47;5087733;28;20046;-75
2022/12/21 10:58:18;;;;;;;;;;;;;;;7.59;100.00;101056.34;5086885;28;19916;-75
2022/12/21 11:00:59;;;;;;;;;;;;;;;8.08;100.00;101048.81;5094516;28;20267;-75
2022/12/21 11:03:24;;;;;;;;;;;;;;;8.05;100.00;101034.13;5094253;28;20440;-75
2022/12/21 11:05:49;;;;;;;;;;;;;;;8.12;100.00;101027.41;5087781;28;20337;-76
2022/12/21 11:08:24;;;;;;;;;;;;;;;8.37;100.00;101013.00;5094324;28;20518;-76
2022/12/21 11:10:50;;;;;;;;;;;;;;;8.78;100.00;100989.38;5087980;28;20572;-76
2022/12/21 11:13:16;;;;;;;;;;;;;;;9.00;100.00;100975.16;5086834;28;20375;-75
2022/12/21 11:15:53;;;;;;;;;;;;;;;9.11;100.00;100956.59;5086838;28;20231;-75
2022/12/21 11:18:37;;;;;;;;;;;;;;;9.11;100.00;100943.41;5085386;28;19964;-75
2022/12/21 11:21:05;;;;;;;;;;;;;;;9.00;100.00;100931.22;5087055;28;19935;-75
2022/12/21 11:23:31;;;;;;;;;;;;;;;8.76;100.00;100925.53;5089775;28;19997;-75
2022/12/21 11:25:56;;;;;;;;;;;;;;;8.48;100.00;100908.72;5089206;28;20485;-75
2022/12/21 11:28:22;;;;;;;;;;;;;;;8.29;100.00;100901.56;5070450;28;19955;-76
2022/12/21 11:31:03;;;;;;;;;;;;;;;8.15;100.00;100906.22;5088709;28;19947;-73
2022/12/21 11:33:29;;;;;;;;;;;;;;;8.06;100.00;100898.28;5089041;28;19915;-75
2022/12/21 11:36:09;;;;;;;;;;;;;;;8.33;100.00;100902.97;5092095;28;19919;-75
2022/12/21 11:38:35;;;;;;;;;;;;;;;8.33;100.00;100909.03;5088598;28;19912;-75
2022/12/21 11:41:01;;;;;;;;;;;;;;;8.20;100.00;100904.00;5089097;28;19924;-74
2022/12/21 11:43:26;;;;;;;;;;;;;;;8.20;100.00;100906.63;5088198;28;19964;-75
2022/12/21 11:45:51;;;;;;;;;;;;;;;8.32;100.00;100893.38;5087701;28;19953;-75
2022/12/21 11:48:27;;;;;;;;;;;;;;;8.26;100.00;100904.47;5090035;28;19922;-75
2022/12/21 11:51:11;;;;;;;;;;;;;;;8.34;100.00;100902.84;5089072;28;20234;-75
2022/12/21 11:53:51;;;;;;;;;;;;;;;8.46;100.00;100897.50;5088862;28;20028;-75
2022/12/21 11:56:30;;;;;;;;;;;;;;;8.39;100.00;100887.47;5087391;28;19916;-75
2022/12/21 11:59:11;;;;;;;;;;;;;;;8.32;100.00;100888.97;5086415;28;20035;-75
2022/12/21 12:01:55;;;;;;;;;;;;;;;8.19;100.00;100880.50;5087253;28;19912;-75
2022/12/21 12:04:26;;;;;;;;;;;;;;;8.19;100.00;100872.63;5086828;28;19912;-74
2022/12/21 12:07:30;;;;;;;;;;;;;;;8.08;100.00;100870.06;5090628;28;20032;-74
2022/12/21 12:10:14;;;;;;;;;;;;;;;8.03;100.00;100873.09;5012448;28;19921;-75
2022/12/21 12:12:58;;;;;;;;;;;;;;;8.08;100.00;100873.56;5013884;28;20419;-74
2022/12/21 12:15:42;;;;;;;;;;;;;;;8.17;100.00;100875.38;5013525;28;19941;-74
2022/12/21 12:18:25;;;;;;;;;;;;;;;8.16;100.00;100871.06;4996773;28;19916;-75
2022/12/21 12:21:02;;;;;;;;;;;;;;;8.23;100.00;100864.31;4996802;28;20007;-74
2022/12/21 12:23:46;;;;;;;;;;;;;;;8.24;100.00;100870.41;5013126;28;19913;-73
2022/12/21 12:26:30;;;;;;;;;;;;;;;8.28;100.00;100870.97;4996352;28;19921;-75
2022/12/21 12:29:05;;;;;;;;;;;;;;;8.17;100.00;100859.59;5012316;28;19916;-75
2022/12/21 12:31:46;;;;;;;;;;;;;;;8.19;100.00;100847.16;5011874;28;20015;-75
2022/12/21 12:34:29;;;;;;;;;;;;;;;8.27;100.00;100849.09;5012450;28;20475;-75
2022/12/21 12:37:01;;;;;;;;;;;;;;;8.30;100.00;100843.59;4996646;28;19939;-74
2022/12/21 12:39:45;;;;;;;;;;;;;;;8.34;100.00;100847.59;5011988;28;19920;-75
2022/12/21 12:42:21;;;;;;;;;;;;;;;8.27;100.00;100835.94;5092417;28;19918;-75
2022/12/21 12:44:49;;;;;;;;;;;;;;;8.26;100.00;100836.09;5091788;28;20217;-75
2022/12/21 12:47:14;;;;;;;;;;;;;;;8.20;100.00;100827.75;5090174;28;20202;-75
2022/12/21 12:49:41;;;;;;;;;;;;;;;8.26;100.00;100836.94;5091954;28;20702;-75